Time;durP1;ratioP1;P1;durP2;ratioP2;P2;SDS_P1;SDS_P2;PMS_P1;PMS_P2;Temp;Humidity;BMP_temperature;BMP_pressure;BME280_temperature;BME280_humidity;BME280_pressure;Samples;Min_cycle;Max_cycle;Signal;HPM_P1;HPM_P2
2021/07/24 00:01:15;;;;;;;24.52;16.83;;;;;;;;;;5012060;28;20046;-64
2021/07/24 00:04:03;;;;;;;21.95;16.05;;;;;;;;;;5012253;28;21688;-64
2021/07/24 00:06:48;;;;;;;24.60;16.25;;;;;;;;;;5013534;28;20769;-65
2021/07/24 00:09:34;;;;;;;25.80;16.92;;;;;;;;;;5012983;28;20042;-65
2021/07/24 00:12:19;;;;;;;23.70;16.95;;;;;;;;;;5013482;28;20125;-65
2021/07/24 00:15:05;;;;;;;26.30;18.20;;;;;;;;;;5010294;28;20124;-65
2021/07/24 00:17:50;;;;;;;24.20;16.77;;;;;;;;;;5011707;28;20397;-65
2021/07/24 00:20:35;;;;;;;20.38;15.32;;;;;;;;;;5009281;28;20165;-65
2021/07/24 00:23:21;;;;;;;23.52;16.58;;;;;;;;;;5012010;28;20057;-65
2021/07/24 00:26:06;;;;;;;29.58;17.15;;;;;;;;;;5012073;28;20408;-65
2021/07/24 00:28:51;;;;;;;25.73;16.88;;;;;;;;;;5015039;28;20420;-66
2021/07/24 00:31:37;;;;;;;28.02;17.70;;;;;;;;;;4996282;28;20061;-65
2021/07/24 00:34:23;;;;;;;23.17;16.80;;;;;;;;;;4995373;28;20052;-65
2021/07/24 00:37:09;;;;;;;23.00;16.23;;;;;;;;;;4996594;28;20053;-65
2021/07/24 00:39:54;;;;;;;27.60;18.30;;;;;;;;;;4999615;28;20038;-65
2021/07/24 00:42:39;;;;;;;23.40;16.85;;;;;;;;;;5015888;28;20072;-64
2021/07/24 00:45:25;;;;;;;23.38;16.95;;;;;;;;;;5014875;28;20050;-64
2021/07/24 00:48:11;;;;;;;30.70;18.10;;;;;;;;;;5016216;28;20132;-64
2021/07/24 00:51:06;;;;;;;26.58;16.95;;;;;;;;;;5014434;28;20038;-64
2021/07/24 00:53:54;;;;;;;22.90;17.05;;;;;;;;;;5015673;28;20423;-65
2021/07/24 00:56:40;;;;;;;25.38;16.40;;;;;;;;;;5015650;28;20049;-65
2021/07/24 00:59:25;;;;;;;25.50;16.70;;;;;;;;;;5015407;28;20508;-65
2021/07/24 01:02:10;;;;;;;29.48;18.02;;;;;;;;;;5014706;28;20054;-65
2021/07/24 01:04:55;;;;;;;26.75;16.75;;;;;;;;;;5016813;28;20046;-65
2021/07/24 01:07:41;;;;;;;29.92;18.77;;;;;;;;;;5016492;28;20049;-65
2021/07/24 01:10:26;;;;;;;31.35;19.20;;;;;;;;;;5015505;28;20436;-65
2021/07/24 01:13:12;;;;;;;29.08;18.63;;;;;;;;;;5016506;28;20054;-64
2021/07/24 01:15:57;;;;;;;26.13;17.45;;;;;;;;;;5014218;28;20052;-65
2021/07/24 01:18:49;;;;;;;36.10;19.57;;;;;;;;;;5028102;28;20471;-65
2021/07/24 01:21:46;;;;;;;29.73;19.23;;;;;;;;;;5026952;28;20528;-64
2021/07/24 01:24:34;;;;;;;25.88;17.27;;;;;;;;;;5014840;28;20400;-65
2021/07/24 01:27:21;;;;;;;27.83;17.52;;;;;;;;;;5014264;28;20065;-65
2021/07/24 01:30:07;;;;;;;31.13;18.35;;;;;;;;;;5027832;28;20053;-65
2021/07/24 01:32:56;;;;;;;28.75;18.90;;;;;;;;;;5013072;28;20069;-64
2021/07/24 01:35:48;;;;;;;30.58;18.70;;;;;;;;;;5028409;28;20065;-64
2021/07/24 01:38:37;;;;;;;28.83;18.27;;;;;;;;;;5016168;28;20112;-65
2021/07/24 01:41:25;;;;;;;30.05;19.40;;;;;;;;;;5028274;28;20049;-65
2021/07/24 01:44:11;;;;;;;28.13;17.65;;;;;;;;;;5015519;28;20053;-65
2021/07/24 01:46:57;;;;;;;26.95;16.83;;;;;;;;;;5029166;28;20120;-65
2021/07/24 01:53:00;;;;;;;31.65;19.13;;;;;;;;;;5013805;28;20076;-64
2021/07/24 01:55:47;;;;;;;26.42;17.75;;;;;;;;;;5013567;28;20136;-64
2021/07/24 01:58:35;;;;;;;25.65;16.88;;;;;;;;;;5014096;28;20496;-64
2021/07/24 02:01:28;;;;;;;34.53;21.08;;;;;;;;;;5016068;28;20046;-65
2021/07/24 02:04:14;;;;;;;33.88;20.02;;;;;;;;;;5014612;28;20046;-65
2021/07/24 02:07:07;;;;;;;32.97;19.52;;;;;;;;;;5041618;28;20046;-65
2021/07/24 02:10:01;;;;;;;29.08;17.83;;;;;;;;;;5027204;28;20496;-65
2021/07/24 02:13:01;;;;;;;29.92;18.25;;;;;;;;;;5024275;28;20057;-65
2021/07/24 02:15:48;;;;;;;35.67;20.70;;;;;;;;;;5026342;28;20042;-65
2021/07/24 02:18:34;;;;;;;33.17;20.15;;;;;;;;;;5012106;28;20044;-65
2021/07/24 02:21:40;;;;;;;33.38;18.63;;;;;;;;;;5026507;28;20095;-65
2021/07/24 02:24:26;;;;;;;32.70;20.08;;;;;;;;;;5012023;28;20049;-65
2021/07/24 02:27:11;;;;;;;38.47;20.33;;;;;;;;;;5013775;28;20053;-64
2021/07/24 02:30:02;;;;;;;35.00;19.48;;;;;;;;;;5013372;28;20571;-65
2021/07/24 02:32:48;;;;;;;31.27;18.90;;;;;;;;;;5012124;28;20049;-65
2021/07/24 02:35:33;;;;;;;36.85;19.70;;;;;;;;;;5013540;28;20136;-65
2021/07/24 02:38:34;;;;;;;33.28;18.75;;;;;;;;;;5013684;28;20444;-64
2021/07/24 02:41:20;;;;;;;35.10;19.85;;;;;;;;;;5026477;28;20092;-64
2021/07/24 02:44:06;;;;;;;35.03;19.33;;;;;;;;;;5012987;28;20049;-64
2021/07/24 02:46:51;;;;;;;36.20;20.48;;;;;;;;;;5013736;28;20096;-64
2021/07/24 02:49:44;;;;;;;35.95;19.80;;;;;;;;;;5025789;28;20147;-64
2021/07/24 02:52:29;;;;;;;37.25;19.08;;;;;;;;;;5014128;28;20046;-65
2021/07/24 02:55:16;;;;;;;35.08;18.58;;;;;;;;;;5012325;28;20042;-65
2021/07/24 02:58:02;;;;;;;37.40;20.55;;;;;;;;;;5013595;28;20057;-64
2021/07/24 03:00:47;;;;;;;39.45;19.70;;;;;;;;;;5043402;28;20054;-64
2021/07/24 03:03:32;;;;;;;43.13;20.23;;;;;;;;;;5016713;28;20065;-63
2021/07/24 03:06:18;;;;;;;40.13;20.38;;;;;;;;;;5014072;28;20046;-65
2021/07/24 03:09:06;;;;;;;39.25;20.17;;;;;;;;;;5016779;28;20053;-64
2021/07/24 03:11:52;;;;;;;42.22;22.65;;;;;;;;;;5016523;28;20056;-64
2021/07/24 03:14:37;;;;;;;45.95;22.42;;;;;;;;;;5013996;28;20481;-64
2021/07/24 03:17:24;;;;;;;41.55;22.63;;;;;;;;;;5017337;28;20048;-63
2021/07/24 03:20:09;;;;;;;48.20;23.33;;;;;;;;;;5015506;28;20093;-64
2021/07/24 03:22:59;;;;;;;46.78;23.20;;;;;;;;;;5014480;28;20053;-65
2021/07/24 03:25:44;;;;;;;49.17;23.50;;;;;;;;;;5025978;28;20042;-65
2021/07/24 03:28:30;;;;;;;49.15;23.75;;;;;;;;;;5013995;28;20515;-64
2021/07/24 03:31:15;;;;;;;43.17;23.33;;;;;;;;;;5012253;28;20052;-64
2021/07/24 03:34:00;;;;;;;54.38;23.98;;;;;;;;;;5014532;28;20127;-65
2021/07/24 03:36:45;;;;;;;50.75;24.67;;;;;;;;;;5013910;28;20054;-65
2021/07/24 03:39:31;;;;;;;46.20;22.70;;;;;;;;;;5014787;28;20053;-65
2021/07/24 03:42:16;;;;;;;45.35;22.13;;;;;;;;;;5014322;28;20041;-65
2021/07/24 03:45:03;;;;;;;50.15;24.25;;;;;;;;;;5014769;28;20453;-65
2021/07/24 03:47:49;;;;;;;48.45;23.90;;;;;;;;;;5012583;28;20050;-65
2021/07/24 03:50:34;;;;;;;47.78;23.27;;;;;;;;;;5012249;28;20041;-65
2021/07/24 03:53:20;;;;;;;47.72;23.27;;;;;;;;;;5012365;28;20515;-65
2021/07/24 03:56:06;;;;;;;43.15;22.30;;;;;;;;;;5011469;28;20137;-65
2021/07/24 03:58:53;;;;;;;50.30;23.45;;;;;;;;;;5012264;28;20555;-65
2021/07/24 04:01:40;;;;;;;45.67;22.27;;;;;;;;;;5011432;28;20508;-64
2021/07/24 04:04:25;;;;;;;37.92;20.98;;;;;;;;;;5012338;28;20101;-64
2021/07/24 04:07:11;;;;;;;43.97;20.95;;;;;;;;;;5011597;28;20046;-64
2021/07/24 04:09:56;;;;;;;42.65;21.02;;;;;;;;;;5010891;28;20052;-64
2021/07/24 04:12:41;;;;;;;38.72;21.23;;;;;;;;;;5012234;28;20049;-64
2021/07/24 04:15:27;;;;;;;40.50;21.70;;;;;;;;;;5012099;28;20459;-64
2021/07/24 04:18:12;;;;;;;38.70;21.33;;;;;;;;;;5024161;28;20046;-64
2021/07/24 04:20:58;;;;;;;39.58;22.05;;;;;;;;;;5011773;28;20543;-64
2021/07/24 04:23:44;;;;;;;47.35;22.88;;;;;;;;;;5011924;28;20056;-64
2021/07/24 04:26:32;;;;;;;39.53;20.98;;;;;;;;;;5011943;28;20530;-64
2021/07/24 04:29:17;;;;;;;39.20;20.60;;;;;;;;;;5011931;28;20046;-64
2021/07/24 04:32:03;;;;;;;39.38;20.92;;;;;;;;;;5013953;28;20393;-65
2021/07/24 04:34:48;;;;;;;40.13;21.50;;;;;;;;;;5014658;28;20074;-65
2021/07/24 04:37:34;;;;;;;41.85;21.52;;;;;;;;;;5013197;28;20137;-65
2021/07/24 04:40:20;;;;;;;36.42;19.60;;;;;;;;;;5011367;28;20046;-64
2021/07/24 04:43:05;;;;;;;40.17;21.02;;;;;;;;;;5011420;28;20052;-64
2021/07/24 04:45:51;;;;;;;35.03;19.90;;;;;;;;;;5008840;28;20046;-65
2021/07/24 04:48:36;;;;;;;38.72;20.60;;;;;;;;;;5009607;28;20048;-65
2021/07/24 04:51:22;;;;;;;33.65;19.52;;;;;;;;;;5012848;28;20072;-65
2021/07/24 04:54:07;;;;;;;35.92;19.73;;;;;;;;;;5013344;28;20050;-66
2021/07/24 04:56:52;;;;;;;32.75;18.90;;;;;;;;;;5012937;28;20061;-66
2021/07/24 04:59:45;;;;;;;32.65;19.45;;;;;;;;;;5011988;28;20046;-66
2021/07/24 05:02:31;;;;;;;33.95;20.77;;;;;;;;;;5012909;28;20476;-66
2021/07/24 05:05:16;;;;;;;31.42;18.65;;;;;;;;;;5013901;28;20169;-65
2021/07/24 05:08:04;;;;;;;31.73;19.67;;;;;;;;;;5027289;28;20074;-65
2021/07/24 05:10:49;;;;;;;33.28;18.25;;;;;;;;;;5024185;28;20097;-65
2021/07/24 05:13:35;;;;;;;29.15;18.60;;;;;;;;;;5012608;28;20133;-65
2021/07/24 05:16:20;;;;;;;32.78;18.45;;;;;;;;;;5015454;28;20050;-65
2021/07/24 05:19:07;;;;;;;29.83;19.35;;;;;;;;;;5014606;28;20058;-65
2021/07/24 05:21:52;;;;;;;29.70;18.98;;;;;;;;;;5015175;28;20500;-65
2021/07/24 05:24:38;;;;;;;29.77;17.48;;;;;;;;;;5015087;28;20065;-65
2021/07/24 05:27:28;;;;;;;27.60;17.48;;;;;;;;;;5015079;28;20056;-65
2021/07/24 05:30:14;;;;;;;28.48;17.20;;;;;;;;;;5014239;28;20080;-65
2021/07/24 05:32:59;;;;;;;25.92;16.42;;;;;;;;;;5016048;28;20131;-66
2021/07/24 05:35:47;;;;;;;26.15;16.40;;;;;;;;;;5014179;28;20049;-66
2021/07/24 05:38:32;;;;;;;30.30;17.55;;;;;;;;;;5041435;28;20128;-66
2021/07/24 05:41:18;;;;;;;34.05;18.65;;;;;;;;;;5013005;28;20054;-66
2021/07/24 05:44:03;;;;;;;27.75;16.83;;;;;;;;;;5014670;28;20435;-66
2021/07/24 05:46:49;;;;;;;25.25;17.65;;;;;;;;;;5014747;28;20172;-66
2021/07/24 05:49:37;;;;;;;24.05;16.38;;;;;;;;;;5014710;28;20416;-66
2021/07/24 05:52:23;;;;;;;27.90;15.85;;;;;;;;;;5014789;28;20141;-66
2021/07/24 05:55:08;;;;;;;28.05;17.08;;;;;;;;;;5013466;28;20140;-66
2021/07/24 05:57:54;;;;;;;26.00;16.75;;;;;;;;;;5014749;28;20049;-66
2021/07/24 06:00:42;;;;;;;25.05;15.52;;;;;;;;;;5013438;28;20161;-65
2021/07/24 06:03:30;;;;;;;22.35;15.18;;;;;;;;;;5014413;28;20057;-65
2021/07/24 06:06:15;;;;;;;26.15;16.73;;;;;;;;;;5014559;28;20050;-65
2021/07/24 06:09:02;;;;;;;21.52;14.80;;;;;;;;;;5014325;28;20045;-67
2021/07/24 06:11:47;;;;;;;22.30;14.45;;;;;;;;;;5013494;28;20515;-66
2021/07/24 06:14:33;;;;;;;22.77;14.80;;;;;;;;;;5013937;28;20064;-66
2021/07/24 06:17:18;;;;;;;25.50;15.40;;;;;;;;;;5014143;28;20053;-66
2021/07/24 06:20:04;;;;;;;22.15;14.77;;;;;;;;;;5013876;28;20054;-65
2021/07/24 06:22:49;;;;;;;22.30;15.23;;;;;;;;;;5040076;28;20401;-65
2021/07/24 06:25:36;;;;;;;21.08;14.75;;;;;;;;;;5013209;28;20046;-66
2021/07/24 06:28:21;;;;;;;22.98;14.60;;;;;;;;;;5014806;28;20041;-66
2021/07/24 06:31:06;;;;;;;24.60;15.10;;;;;;;;;;5014530;28;20042;-66
2021/07/24 06:33:52;;;;;;;22.27;13.68;;;;;;;;;;5000026;28;20050;-66
2021/07/24 06:36:39;;;;;;;19.63;13.70;;;;;;;;;;5013633;28;20105;-66
2021/07/24 06:39:24;;;;;;;18.38;13.48;;;;;;;;;;5014564;28;20064;-66
2021/07/24 06:42:10;;;;;;;20.40;14.43;;;;;;;;;;5012713;28;20046;-65
2021/07/24 06:44:55;;;;;;;17.40;11.68;;;;;;;;;;5009556;28;20053;-65
2021/07/24 06:47:41;;;;;;;22.63;13.15;;;;;;;;;;5012212;28;20070;-65
2021/07/24 06:50:26;;;;;;;20.20;14.32;;;;;;;;;;5009938;28;20496;-65
2021/07/24 06:53:12;;;;;;;17.77;12.50;;;;;;;;;;5009525;28;20041;-65
2021/07/24 06:55:57;;;;;;;19.70;12.20;;;;;;;;;;5011498;28;20511;-66
2021/07/24 06:58:43;;;;;;;16.92;12.25;;;;;;;;;;5011470;28;20049;-65
2021/07/24 07:01:28;;;;;;;17.67;12.43;;;;;;;;;;5011079;28;20119;-66
2021/07/24 07:04:14;;;;;;;17.92;12.40;;;;;;;;;;5012432;28;20042;-66
2021/07/24 07:06:59;;;;;;;13.00;11.32;;;;;;;;;;5011567;28;20061;-66
2021/07/24 07:09:45;;;;;;;18.60;12.23;;;;;;;;;;5013652;28;20052;-66
2021/07/24 07:12:30;;;;;;;15.70;11.88;;;;;;;;;;5011164;28;20053;-65
2021/07/24 07:15:16;;;;;;;12.73;11.38;;;;;;;;;;5040068;28;20046;-63
2021/07/24 07:18:02;;;;;;;14.75;11.52;;;;;;;;;;5013026;28;20045;-64
2021/07/24 07:20:47;;;;;;;13.45;10.63;;;;;;;;;;5011841;28;20053;-64
2021/07/24 07:23:32;;;;;;;12.75;9.38;;;;;;;;;;5011553;28;20056;-64
2021/07/24 07:26:32;;;;;;;11.07;9.85;;;;;;;;;;5011281;28;20045;-64
2021/07/24 07:29:17;;;;;;;11.80;9.35;;;;;;;;;;5018574;28;20049;-65
2021/07/24 07:32:03;;;;;;;11.15;9.85;;;;;;;;;;5009474;28;20492;-64
2021/07/24 07:34:48;;;;;;;12.50;10.05;;;;;;;;;;5011871;28;20052;-65
2021/07/24 07:37:36;;;;;;;12.88;10.00;;;;;;;;;;5011742;28;20503;-65
2021/07/24 07:40:22;;;;;;;12.57;9.98;;;;;;;;;;5009586;28;20501;-65
2021/07/24 07:43:11;;;;;;;11.25;9.77;;;;;;;;;;5010893;28;20049;-65
2021/07/24 07:45:56;;;;;;;13.15;10.23;;;;;;;;;;5011260;28;20415;-65
2021/07/24 07:48:42;;;;;;;13.55;10.10;;;;;;;;;;5012113;28;20195;-65
2021/07/24 07:51:27;;;;;;;12.00;10.40;;;;;;;;;;5011822;28;20050;-65
2021/07/24 07:54:13;;;;;;;14.55;10.40;;;;;;;;;;5010020;28;20054;-64
2021/07/24 07:56:58;;;;;;;10.77;9.63;;;;;;;;;;5009481;28;20053;-65
2021/07/24 07:59:43;;;;;;;11.82;9.50;;;;;;;;;;5008570;28;20057;-65
2021/07/24 08:02:29;;;;;;;13.48;9.73;;;;;;;;;;5007344;28;20077;-65
2021/07/24 08:05:14;;;;;;;10.52;9.05;;;;;;;;;;5008601;28;20049;-65
2021/07/24 08:07:59;;;;;;;10.98;9.75;;;;;;;;;;5007930;28;20104;-65
2021/07/24 08:10:44;;;;;;;12.77;10.15;;;;;;;;;;5003671;28;20045;-65
2021/07/24 08:13:30;;;;;;;10.35;8.63;;;;;;;;;;5007909;28;20115;-65
2021/07/24 08:16:19;;;;;;;12.93;9.88;;;;;;;;;;5008894;28;20542;-66
2021/07/24 08:19:04;;;;;;;10.48;9.02;;;;;;;;;;5007720;28;20064;-66
2021/07/24 08:21:49;;;;;;;11.30;8.80;;;;;;;;;;5009170;28;20145;-65
2021/07/24 08:24:34;;;;;;;11.00;8.45;;;;;;;;;;5008239;28;20049;-65
2021/07/24 08:27:20;;;;;;;9.60;8.27;;;;;;;;;;5006841;28;20042;-65
2021/07/24 08:30:05;;;;;;;12.93;8.95;;;;;;;;;;5008269;28;20120;-65
2021/07/24 08:32:50;;;;;;;9.25;8.23;;;;;;;;;;5009122;28;20058;-65
2021/07/24 08:35:35;;;;;;;9.57;8.30;;;;;;;;;;5008291;28;20042;-65
2021/07/24 08:38:21;;;;;;;10.65;7.65;;;;;;;;;;5008398;28;20049;-65
2021/07/24 08:41:06;;;;;;;9.05;7.85;;;;;;;;;;5006719;28;20608;-65
2021/07/24 08:43:52;;;;;;;11.23;7.85;;;;;;;;;;5008139;28;20053;-65
2021/07/24 08:46:38;;;;;;;8.25;7.15;;;;;;;;;;5010864;28;20065;-66
2021/07/24 08:49:23;;;;;;;13.10;8.65;;;;;;;;;;5012848;28;20060;-65
2021/07/24 08:52:08;;;;;;;9.82;7.63;;;;;;;;;;5013210;28;20046;-65
2021/07/24 08:54:53;;;;;;;9.18;7.63;;;;;;;;;;5013684;28;20050;-65
2021/07/24 08:57:42;;;;;;;9.85;7.38;;;;;;;;;;5015216;28;20068;-66
2021/07/24 09:00:28;;;;;;;8.07;7.00;;;;;;;;;;5013855;28;20133;-65
2021/07/24 09:03:16;;;;;;;10.35;7.20;;;;;;;;;;5013403;28;20072;-65
2021/07/24 09:06:01;;;;;;;12.48;7.05;;;;;;;;;;5011794;28;20488;-66
2021/07/24 09:08:47;;;;;;;7.72;6.97;;;;;;;;;;5011709;28;20085;-67
2021/07/24 09:11:32;;;;;;;11.07;7.03;;;;;;;;;;5006151;28;20128;-66
2021/07/24 09:14:18;;;;;;;9.30;7.28;;;;;;;;;;5010425;28;20065;-65
2021/07/24 09:17:03;;;;;;;10.10;7.75;;;;;;;;;;5011424;28;20420;-66
2021/07/24 09:19:50;;;;;;;9.57;7.50;;;;;;;;;;5011470;28;20135;-65
2021/07/24 09:22:36;;;;;;;9.57;7.50;;;;;;;;;;5012211;28;20069;-65
2021/07/24 09:25:22;;;;;;;10.95;7.35;;;;;;;;;;5010667;28;20046;-66
2021/07/24 09:28:11;;;;;;;9.07;7.03;;;;;;;;;;5011766;28;20184;-65
2021/07/24 09:30:57;;;;;;;8.38;7.47;;;;;;;;;;5010657;28;20049;-65
2021/07/24 09:33:50;;;;;;;9.85;7.45;;;;;;;;;;5011575;28;20065;-65
2021/07/24 09:36:35;;;;;;;8.68;7.78;;;;;;;;;;5012551;28;20523;-65
2021/07/24 09:39:20;;;;;;;9.70;6.57;;;;;;;;;;5004324;28;20112;-65
2021/07/24 09:42:12;;;;;;;8.95;7.20;;;;;;;;;;5003791;28;20049;-63
2021/07/24 09:45:06;;;;;;;12.32;7.63;;;;;;;;;;5010036;28;20041;-67
2021/07/24 09:47:55;;;;;;;7.75;7.05;;;;;;;;;;5009113;28;20863;-66
2021/07/24 09:50:41;;;;;;;10.05;7.78;;;;;;;;;;5010469;28;20056;-66
2021/07/24 09:53:42;;;;;;;11.02;7.75;;;;;;;;;;5005915;28;20522;-66
2021/07/24 09:56:43;;;;;;;8.40;7.07;;;;;;;;;;5007212;28;20072;-65
2021/07/24 09:59:32;;;;;;;10.47;7.40;;;;;;;;;;5006689;28;20420;-64
2021/07/24 10:02:28;;;;;;;9.30;7.25;;;;;;;;;;5008717;28;20077;-65
2021/07/24 10:05:14;;;;;;;9.38;7.25;;;;;;;;;;4972332;28;1035920;-66
2021/07/24 10:07:59;;;;;;;9.25;7.28;;;;;;;;;;5010233;28;20053;-65
2021/07/24 10:10:45;;;;;;;12.90;7.43;;;;;;;;;;5004311;28;20049;-65
2021/07/24 10:13:30;;;;;;;8.88;7.22;;;;;;;;;;5008123;28;20523;-65
2021/07/24 10:16:15;;;;;;;8.68;7.35;;;;;;;;;;5010018;28;20049;-65
2021/07/24 10:19:01;;;;;;;9.52;7.30;;;;;;;;;;5011838;28;20412;-66
2021/07/24 10:21:47;;;;;;;9.32;7.63;;;;;;;;;;5016969;28;20046;-66
2021/07/24 10:24:32;;;;;;;9.40;7.13;;;;;;;;;;5010277;28;20053;-65
2021/07/24 10:27:18;;;;;;;8.65;7.75;;;;;;;;;;5011453;28;20050;-65
2021/07/24 10:30:04;;;;;;;8.93;6.93;;;;;;;;;;5010820;28;20053;-66
2021/07/24 10:32:49;;;;;;;9.93;7.70;;;;;;;;;;5010621;28;20049;-66
2021/07/24 10:35:38;;;;;;;7.90;7.10;;;;;;;;;;5010127;28;20049;-65
2021/07/24 10:38:30;;;;;;;9.75;7.35;;;;;;;;;;5010867;28;20077;-65
2021/07/24 10:41:16;;;;;;;;;;;;;;;;;;5011884;28;20504;-65
2021/07/24 10:44:03;;;;;;;8.38;7.47;;;;;;;;;;5010373;28;20344;-65
2021/07/24 10:46:49;;;;;;;11.32;7.10;;;;;;;;;;5011619;28;20049;-65
2021/07/24 10:49:34;;;;;;;9.90;7.80;;;;;;;;;;5012240;28;20058;-66
2021/07/24 10:52:19;;;;;;;11.07;7.05;;;;;;;;;;5039470;28;20080;-66
2021/07/24 10:55:11;;;;;;;10.48;7.47;;;;;;;;;;5036947;28;20531;-65
2021/07/24 10:58:03;;;;;;;8.75;7.85;;;;;;;;;;5011384;28;20168;-66
2021/07/24 11:00:51;;;;;;;10.10;7.60;;;;;;;;;;5009432;28;20034;-65
2021/07/24 11:03:37;;;;;;;8.75;7.82;;;;;;;;;;5010131;28;20048;-65
2021/07/24 11:06:27;;;;;;;9.25;7.32;;;;;;;;;;5003777;28;20417;-65
2021/07/24 11:09:15;;;;;;;9.05;8.25;;;;;;;;;;5011198;28;20053;-66
2021/07/24 11:12:03;;;;;;;9.48;7.88;;;;;;;;;;5004391;28;20049;-66
2021/07/24 11:14:49;;;;;;;11.27;8.32;;;;;;;;;;5010103;28;20068;-66
2021/07/24 11:17:35;;;;;;;9.55;8.48;;;;;;;;;;5008077;28;20125;-66
2021/07/24 11:20:24;;;;;;;11.27;8.43;;;;;;;;;;5002067;28;20044;-66
2021/07/24 11:23:09;;;;;;;12.15;8.75;;;;;;;;;;5009823;28;20176;-65
2021/07/24 11:26:02;;;;;;;12.32;7.63;;;;;;;;;;5005248;28;20060;-66
2021/07/24 11:28:47;;;;;;;9.30;8.02;;;;;;;;;;5009908;28;20048;-65
2021/07/24 11:31:33;;;;;;;10.07;8.70;;;;;;;;;;5007593;28;20045;-66
2021/07/24 11:34:19;;;;;;;9.13;8.13;;;;;;;;;;5005830;28;20066;-67
2021/07/24 11:37:06;;;;;;;9.48;7.82;;;;;;;;;;5008664;28;20048;-64
2021/07/24 11:39:54;;;;;;;15.93;8.27;;;;;;;;;;5008740;28;20515;-66
2021/07/24 11:42:39;;;;;;;12.10;7.97;;;;;;;;;;4990163;28;20053;-65
2021/07/24 11:45:25;;;;;;;9.35;8.48;;;;;;;;;;5004545;28;20057;-66
2021/07/24 11:48:15;;;;;;;12.25;9.27;;;;;;;;;;5010836;28;20045;-66
2021/07/24 11:51:01;;;;;;;12.07;9.13;;;;;;;;;;5023346;28;20082;-65
2021/07/24 11:53:50;;;;;;;8.65;7.75;;;;;;;;;;5012062;28;20506;-66
2021/07/24 11:56:36;;;;;;;9.23;8.00;;;;;;;;;;4990872;28;20049;-66
2021/07/24 11:59:21;;;;;;;12.63;8.02;;;;;;;;;;4990150;28;20519;-66
2021/07/24 12:02:06;;;;;;;9.85;8.20;;;;;;;;;;5005202;28;20126;-66
2021/07/24 12:04:51;;;;;;;9.30;8.13;;;;;;;;;;5005837;28;20049;-66
2021/07/24 12:07:36;;;;;;;10.75;8.18;;;;;;;;;;5006857;28;20037;-66
2021/07/24 12:10:22;;;;;;;10.73;7.75;;;;;;;;;;5007276;28;20061;-66
2021/07/24 12:13:07;;;;;;;10.15;7.90;;;;;;;;;;5009961;28;20527;-66
2021/07/24 12:16:19;;;;;;;10.25;8.13;;;;;;;;;;5003791;28;20052;-66
2021/07/24 12:19:12;;;;;;;12.18;7.45;;;;;;;;;;5010244;28;20058;-66
2021/07/24 12:21:57;;;;;;;8.07;7.05;;;;;;;;;;5007281;28;20077;-65
2021/07/24 12:24:43;;;;;;;8.90;7.80;;;;;;;;;;5010320;28;20519;-66
2021/07/24 12:27:28;;;;;;;8.70;6.65;;;;;;;;;;4994897;28;20048;-65
2021/07/24 12:30:15;;;;;;;11.07;7.85;;;;;;;;;;5011303;28;20069;-66
2021/07/24 12:33:00;;;;;;;12.93;8.27;;;;;;;;;;5013596;28;20049;-65
2021/07/24 12:35:59;;;;;;;8.52;7.50;;;;;;;;;;5010549;28;20069;-66
2021/07/24 12:38:44;;;;;;;9.23;7.55;;;;;;;;;;5005840;28;20138;-65
2021/07/24 12:41:30;;;;;;;9.02;7.60;;;;;;;;;;5013359;28;20466;-66
2021/07/24 12:44:16;;;;;;;9.70;7.60;;;;;;;;;;5007144;28;20065;-65
2021/07/24 12:47:13;;;;;;;8.90;7.60;;;;;;;;;;5006921;28;20123;-66
2021/07/24 12:49:59;;;;;;;8.15;7.35;;;;;;;;;;4994797;28;20058;-65
2021/07/24 12:52:44;;;;;;;8.20;7.07;;;;;;;;;;5012838;28;20053;-66
2021/07/24 12:55:33;;;;;;;8.38;7.20;;;;;;;;;;5004658;28;20424;-66
2021/07/24 12:58:18;;;;;;;8.52;7.72;;;;;;;;;;5012878;28;20136;-66
2021/07/24 13:01:08;;;;;;;8.40;7.43;;;;;;;;;;5012772;28;20064;-66
2021/07/24 13:03:53;;;;;;;9.00;7.25;;;;;;;;;;5012999;28;20649;-66
2021/07/24 13:06:39;;;;;;;11.82;6.68;;;;;;;;;;5011440;28;20048;-66
2021/07/24 13:09:24;;;;;;;10.75;7.22;;;;;;;;;;5008476;28;20412;-66
2021/07/24 13:12:09;;;;;;;10.35;8.55;;;;;;;;;;5011820;28;20412;-65
2021/07/24 13:14:55;;;;;;;11.02;7.53;;;;;;;;;;5008990;28;20109;-66
2021/07/24 13:17:40;;;;;;;8.60;7.70;;;;;;;;;;5013852;28;20052;-66
2021/07/24 13:20:26;;;;;;;8.48;6.95;;;;;;;;;;5015460;28;20052;-66
2021/07/24 13:23:11;;;;;;;10.38;7.00;;;;;;;;;;5014476;28;20055;-66
2021/07/24 13:28:13;;;;;;;8.05;6.68;;;;;;;;;;5014138;28;20049;-66
2021/07/24 13:29:12;;;;;;;12.32;8.35;;;;;;;;;;5016721;28;20069;-66
2021/07/24 13:31:57;;;;;;;9.60;7.88;;;;;;;;;;5015851;28;20180;-66
2021/07/24 13:34:42;;;;;;;10.60;7.18;;;;;;;;;;5013797;28;20049;-66
2021/07/24 13:37:27;;;;;;;7.50;6.70;;;;;;;;;;5014283;28;20060;-66
2021/07/24 13:40:13;;;;;;;8.63;7.32;;;;;;;;;;5014516;28;20045;-65
2021/07/24 13:43:01;;;;;;;9.82;8.02;;;;;;;;;;5014776;28;20046;-66
2021/07/24 13:45:46;;;;;;;8.10;7.25;;;;;;;;;;5014038;28;20053;-66
2021/07/24 13:48:32;;;;;;;8.60;7.80;;;;;;;;;;4995873;28;20068;-65
2021/07/24 13:51:25;;;;;;;9.43;7.25;;;;;;;;;;4994981;28;20050;-66
2021/07/24 13:54:10;;;;;;;8.68;7.43;;;;;;;;;;4995182;28;20076;-66
2021/07/24 13:56:56;;;;;;;10.40;7.82;;;;;;;;;;5001007;28;20045;-66
2021/07/24 13:59:41;;;;;;;11.95;8.50;;;;;;;;;;5013307;28;20087;-66
2021/07/24 14:02:27;;;;;;;9.48;7.55;;;;;;;;;;5014502;28;20046;-65
2021/07/24 14:05:12;;;;;;;9.57;7.22;;;;;;;;;;5014912;28;20172;-66
2021/07/24 14:07:57;;;;;;;9.98;7.85;;;;;;;;;;5013564;28;20057;-66
2021/07/24 14:10:43;;;;;;;10.45;8.43;;;;;;;;;;5014061;28;20041;-65
2021/07/24 14:13:28;;;;;;;8.98;7.55;;;;;;;;;;5014339;28;20145;-66
2021/07/24 14:16:14;;;;;;;11.13;7.47;;;;;;;;;;5015424;28;20058;-65
2021/07/24 14:19:00;;;;;;;9.45;8.07;;;;;;;;;;5013201;28;20092;-66
2021/07/24 14:21:45;;;;;;;8.82;7.90;;;;;;;;;;5040384;28;20169;-66
2021/07/24 14:24:30;;;;;;;9.48;8.13;;;;;;;;;;4993215;28;20057;-66
2021/07/24 14:27:16;;;;;;;9.93;8.25;;;;;;;;;;4991972;28;20061;-65
2021/07/24 14:30:01;;;;;;;11.38;7.45;;;;;;;;;;5011600;28;20489;-65
2021/07/24 14:32:46;;;;;;;8.77;7.80;;;;;;;;;;5012771;28;20080;-66
2021/07/24 14:35:32;;;;;;;9.13;7.53;;;;;;;;;;5011776;28;20050;-66
2021/07/24 14:38:17;;;;;;;8.25;7.45;;;;;;;;;;5009450;28;20068;-66
2021/07/24 14:41:03;;;;;;;9.60;7.93;;;;;;;;;;5012341;28;20042;-66
2021/07/24 14:43:48;;;;;;;10.43;8.00;;;;;;;;;;5011981;28;20054;-66
2021/07/24 14:46:33;;;;;;;10.02;7.75;;;;;;;;;;5011062;28;20121;-66
2021/07/24 14:49:19;;;;;;;9.52;7.75;;;;;;;;;;5010355;28;20135;-66
2021/07/24 14:52:04;;;;;;;10.75;7.70;;;;;;;;;;5006541;28;20072;-66
2021/07/24 14:54:49;;;;;;;11.20;7.97;;;;;;;;;;5012177;28;20046;-66
2021/07/24 14:57:35;;;;;;;11.13;7.40;;;;;;;;;;5011960;28;20065;-66
2021/07/24 15:00:20;;;;;;;8.90;6.97;;;;;;;;;;5008974;28;20049;-66
2021/07/24 15:03:05;;;;;;;10.60;8.00;;;;;;;;;;4992376;28;20049;-65
2021/07/24 15:05:51;;;;;;;8.27;7.50;;;;;;;;;;4991763;28;20181;-65
2021/07/24 15:08:36;;;;;;;8.35;7.45;;;;;;;;;;4991911;28;20050;-66
2021/07/24 15:11:22;;;;;;;9.57;7.95;;;;;;;;;;4996686;28;20394;-66
2021/07/24 15:14:07;;;;;;;10.07;8.00;;;;;;;;;;5010960;28;21408;-65
2021/07/24 15:16:53;;;;;;;7.65;6.95;;;;;;;;;;5011408;28;20073;-65
2021/07/24 15:19:38;;;;;;;12.30;8.05;;;;;;;;;;5009939;28;20144;-66
2021/07/24 15:24:02;;;;;;;8.10;7.25;;;;;;;;;;5125812;27;20920;-65
2021/07/24 15:26:48;;;;;;;10.10;7.97;;;;;;;;;;5105429;28;20052;-65
2021/07/24 15:29:33;;;;;;;21.10;10.93;;;;;;;;;;5094004;27;20136;-64
2021/07/24 15:32:18;;;;;;;30.27;13.45;;;;;;;;;;5105221;28;20528;-65
2021/07/24 15:35:04;;;;;;;20.48;11.68;;;;;;;;;;5105752;27;20054;-64
2021/07/24 15:37:49;;;;;;;16.30;8.55;;;;;;;;;;5090742;28;20534;-65
2021/07/24 15:40:35;;;;;;;24.25;11.57;;;;;;;;;;5086282;28;20043;-64
2021/07/24 15:43:20;;;;;;;9.90;8.32;;;;;;;;;;5099416;27;20054;-64
2021/07/24 15:46:05;;;;;;;8.55;7.30;;;;;;;;;;5106957;28;20087;-64
2021/07/24 15:48:51;;;;;;;10.70;8.10;;;;;;;;;;5106906;27;20059;-64
2021/07/24 15:51:36;;;;;;;12.88;8.38;;;;;;;;;;5101641;28;20185;-65
2021/07/24 15:54:21;;;;;;;12.02;8.45;;;;;;;;;;5106252;27;20197;-64
2021/07/24 15:57:07;;;;;;;8.98;8.00;;;;;;;;;;5106308;28;20043;-64
2021/07/24 15:59:55;;;;;;;9.55;8.20;;;;;;;;;;5102852;28;20058;-64
2021/07/24 16:02:41;;;;;;;9.55;8.65;;;;;;;;;;5106383;28;20074;-64
2021/07/24 16:05:26;;;;;;;9.18;8.32;;;;;;;;;;5105827;27;20410;-64
2021/07/24 16:08:11;;;;;;;11.52;8.95;;;;;;;;;;5087474;28;20115;-64
2021/07/24 16:10:56;;;;;;;11.75;8.40;;;;;;;;;;5091727;28;20582;-64
2021/07/24 16:13:41;;;;;;;9.50;8.60;;;;;;;;;;5106602;27;20139;-64
2021/07/24 16:16:27;;;;;;;10.07;8.55;;;;;;;;;;5106549;28;20039;-64
2021/07/24 16:19:12;;;;;;;11.98;9.55;;;;;;;;;;5106365;27;20463;-64
2021/07/24 16:21:58;;;;;;;9.70;8.00;;;;;;;;;;5105016;28;20513;-64
2021/07/24 16:24:43;;;;;;;12.32;9.75;;;;;;;;;;5105247;27;20050;-64
2021/07/24 16:27:29;;;;;;;10.38;8.43;;;;;;;;;;5104230;28;20044;-64